sensor_id;sensor_type;location;lat;lon;timestamp;temperature;humidity
73683;DHT22;72538;48.146;11.740;2023-08-31T00:02:23;12.40;99.90
73683;DHT22;72538;48.146;11.740;2023-08-31T00:04:53;12.40;99.90
73683;DHT22;72538;48.146;11.740;2023-08-31T00:07:21;12.40;99.90
73683;DHT22;72538;48.146;11.740;2023-08-31T00:09:47;12.40;99.90
73683;DHT22;72538;48.146;11.740;2023-08-31T00:12:13;12.40;99.90
73683;DHT22;72538;48.146;11.740;2023-08-31T00:14:38;12.40;99.90
73683;DHT22;72538;48.146;11.740;2023-08-31T00:17:04;12.40;99.90
73683;DHT22;72538;48.146;11.740;2023-08-31T00:19:30;12.40;99.90
73683;DHT22;72538;48.146;11.740;2023-08-31T00:21:56;12.40;99.90
73683;DHT22;72538;48.146;11.740;2023-08-31T00:24:22;12.30;99.90
73683;DHT22;72538;48.146;11.740;2023-08-31T00:26:49;12.20;99.90
73683;DHT22;72538;48.146;11.740;2023-08-31T00:29:16;12.10;99.90
73683;DHT22;72538;48.146;11.740;2023-08-31T00:31:42;12.10;99.90
73683;DHT22;72538;48.146;11.740;2023-08-31T00:34:09;12.00;99.90
73683;DHT22;72538;48.146;11.740;2023-08-31T00:36:37;12.00;99.90
73683;DHT22;72538;48.146;11.740;2023-08-31T00:39:04;12.00;99.90
73683;DHT22;72538;48.146;11.740;2023-08-31T00:41:36;11.90;99.90
73683;DHT22;72538;48.146;11.740;2023-08-31T00:44:03;11.90;99.90
73683;DHT22;72538;48.146;11.740;2023-08-31T00:46:34;11.80;99.90
73683;DHT22;72538;48.146;11.740;2023-08-31T00:49:00;11.90;99.90
73683;DHT22;72538;48.146;11.740;2023-08-31T00:51:27;11.80;99.90
73683;DHT22;72538;48.146;11.740;2023-08-31T00:53:54;11.80;99.90
73683;DHT22;72538;48.146;11.740;2023-08-31T00:56:21;11.70;99.90
73683;DHT22;72538;48.146;11.740;2023-08-31T00:58:47;11.70;99.90
73683;DHT22;72538;48.146;11.740;2023-08-31T01:01:29;11.60;99.90
73683;DHT22;72538;48.146;11.740;2023-08-31T01:07:13;11.60;99.90
73683;DHT22;72538;48.146;11.740;2023-08-31T01:09:40;11.50;99.90
73683;DHT22;72538;48.146;11.740;2023-08-31T01:12:09;11.50;99.90
73683;DHT22;72538;48.146;11.740;2023-08-31T01:14:52;11.40;99.90
73683;DHT22;72538;48.146;11.740;2023-08-31T01:17:19;11.40;99.90
73683;DHT22;72538;48.146;11.740;2023-08-31T01:19:52;11.40;99.90
73683;DHT22;72538;48.146;11.740;2023-08-31T01:24:52;11.40;99.90
73683;DHT22;72538;48.146;11.740;2023-08-31T01:27:18;11.40;99.90
73683;DHT22;72538;48.146;11.740;2023-08-31T01:29:44;11.40;99.90
73683;DHT22;72538;48.146;11.740;2023-08-31T01:32:11;11.40;99.90
73683;DHT22;72538;48.146;11.740;2023-08-31T01:34:36;11.50;99.90
73683;DHT22;72538;48.146;11.740;2023-08-31T01:37:08;11.40;99.90
73683;DHT22;72538;48.146;11.740;2023-08-31T01:39:35;11.30;99.90
73683;DHT22;72538;48.146;11.740;2023-08-31T01:42:05;11.30;99.90
73683;DHT22;72538;48.146;11.740;2023-08-31T01:44:34;11.30;99.90
73683;DHT22;72538;48.146;11.740;2023-08-31T01:47:04;11.30;99.90
73683;DHT22;72538;48.146;11.740;2023-08-31T01:49:37;11.40;99.90
73683;DHT22;72538;48.146;11.740;2023-08-31T01:52:05;11.50;99.90
73683;DHT22;72538;48.146;11.740;2023-08-31T01:54:32;11.50;99.90
73683;DHT22;72538;48.146;11.740;2023-08-31T01:56:58;11.60;99.90
73683;DHT22;72538;48.146;11.740;2023-08-31T01:59:25;11.70;99.90
73683;DHT22;72538;48.146;11.740;2023-08-31T02:01:52;11.80;99.90
73683;DHT22;72538;48.146;11.740;2023-08-31T02:04:18;11.80;99.90
73683;DHT22;72538;48.146;11.740;2023-08-31T02:06:44;11.90;99.90
73683;DHT22;72538;48.146;11.740;2023-08-31T02:09:10;12.00;99.90
73683;DHT22;72538;48.146;11.740;2023-08-31T02:11:36;12.00;99.90
73683;DHT22;72538;48.146;11.740;2023-08-31T02:14:04;12.10;99.90
73683;DHT22;72538;48.146;11.740;2023-08-31T02:16:31;12.10;99.90
73683;DHT22;72538;48.146;11.740;2023-08-31T02:18:57;12.10;99.90
73683;DHT22;72538;48.146;11.740;2023-08-31T02:21:24;12.20;99.90
73683;DHT22;72538;48.146;11.740;2023-08-31T02:23:49;12.20;99.90
73683;DHT22;72538;48.146;11.740;2023-08-31T02:26:15;12.20;99.90
73683;DHT22;72538;48.146;11.740;2023-08-31T02:28:41;12.30;99.90
73683;DHT22;72538;48.146;11.740;2023-08-31T02:31:07;12.30;99.90
73683;DHT22;72538;48.146;11.740;2023-08-31T02:33:33;12.40;99.90
73683;DHT22;72538;48.146;11.740;2023-08-31T02:35:58;12.50;99.90
73683;DHT22;72538;48.146;11.740;2023-08-31T02:38:24;12.40;99.90
73683;DHT22;72538;48.146;11.740;2023-08-31T02:40:50;12.40;99.90
73683;DHT22;72538;48.146;11.740;2023-08-31T02:43:15;12.50;99.90
73683;DHT22;72538;48.146;11.740;2023-08-31T02:45:41;12.40;99.90
73683;DHT22;72538;48.146;11.740;2023-08-31T02:48:07;12.50;99.90
73683;DHT22;72538;48.146;11.740;2023-08-31T02:50:36;12.60;99.90
73683;DHT22;72538;48.146;11.740;2023-08-31T02:53:02;12.60;99.90
73683;DHT22;72538;48.146;11.740;2023-08-31T02:55:28;12.70;99.90
73683;DHT22;72538;48.146;11.740;2023-08-31T02:57:54;12.70;99.90
73683;DHT22;72538;48.146;11.740;2023-08-31T03:00:20;12.70;99.90
73683;DHT22;72538;48.146;11.740;2023-08-31T03:02:48;12.60;99.90
73683;DHT22;72538;48.146;11.740;2023-08-31T03:05:16;12.50;99.90
73683;DHT22;72538;48.146;11.740;2023-08-31T03:07:42;12.50;99.90
73683;DHT22;72538;48.146;11.740;2023-08-31T03:10:08;12.40;99.90
73683;DHT22;72538;48.146;11.740;2023-08-31T03:12:34;12.40;99.90
73683;DHT22;72538;48.146;11.740;2023-08-31T03:15:00;12.30;99.90
73683;DHT22;72538;48.146;11.740;2023-08-31T03:17:26;12.30;99.90
73683;DHT22;72538;48.146;11.740;2023-08-31T03:19:52;12.30;99.90
73683;DHT22;72538;48.146;11.740;2023-08-31T03:22:17;12.30;99.90
73683;DHT22;72538;48.146;11.740;2023-08-31T03:24:43;12.20;99.90
73683;DHT22;72538;48.146;11.740;2023-08-31T03:27:09;12.20;99.90
73683;DHT22;72538;48.146;11.740;2023-08-31T03:29:34;12.20;99.90
73683;DHT22;72538;48.146;11.740;2023-08-31T03:32:00;12.20;99.90
73683;DHT22;72538;48.146;11.740;2023-08-31T03:34:30;12.20;99.90
73683;DHT22;72538;48.146;11.740;2023-08-31T03:36:57;12.20;99.90
73683;DHT22;72538;48.146;11.740;2023-08-31T03:39:24;12.10;99.90
73683;DHT22;72538;48.146;11.740;2023-08-31T03:41:50;12.20;99.90
73683;DHT22;72538;48.146;11.740;2023-08-31T03:44:16;12.20;99.90
73683;DHT22;72538;48.146;11.740;2023-08-31T03:46:42;12.30;99.90
73683;DHT22;72538;48.146;11.740;2023-08-31T03:49:08;12.30;99.90
73683;DHT22;72538;48.146;11.740;2023-08-31T03:51:34;12.40;99.90
73683;DHT22;72538;48.146;11.740;2023-08-31T03:54:00;12.40;99.90
73683;DHT22;72538;48.146;11.740;2023-08-31T03:56:26;12.40;99.90
73683;DHT22;72538;48.146;11.740;2023-08-31T03:58:53;12.40;99.90
73683;DHT22;72538;48.146;11.740;2023-08-31T04:01:19;12.40;99.90
73683;DHT22;72538;48.146;11.740;2023-08-31T04:03:45;12.50;99.90
73683;DHT22;72538;48.146;11.740;2023-08-31T04:06:12;12.50;99.90
73683;DHT22;72538;48.146;11.740;2023-08-31T04:08:37;12.50;99.90
73683;DHT22;72538;48.146;11.740;2023-08-31T04:11:03;12.60;99.90
73683;DHT22;72538;48.146;11.740;2023-08-31T04:13:29;12.60;99.90
73683;DHT22;72538;48.146;11.740;2023-08-31T04:15:54;12.60;99.90
73683;DHT22;72538;48.146;11.740;2023-08-31T04:18:21;12.60;99.90
73683;DHT22;72538;48.146;11.740;2023-08-31T04:20:51;12.60;99.90
73683;DHT22;72538;48.146;11.740;2023-08-31T04:23:20;12.70;99.90
73683;DHT22;72538;48.146;11.740;2023-08-31T04:25:47;12.70;99.90
73683;DHT22;72538;48.146;11.740;2023-08-31T04:28:13;12.60;99.90
73683;DHT22;72538;48.146;11.740;2023-08-31T04:30:39;12.60;99.90
73683;DHT22;72538;48.146;11.740;2023-08-31T04:33:06;12.60;99.90
73683;DHT22;72538;48.146;11.740;2023-08-31T04:35:33;12.70;99.90
73683;DHT22;72538;48.146;11.740;2023-08-31T04:37:59;12.60;99.90
73683;DHT22;72538;48.146;11.740;2023-08-31T04:40:27;12.60;99.90
73683;DHT22;72538;48.146;11.740;2023-08-31T04:42:53;12.60;99.90
73683;DHT22;72538;48.146;11.740;2023-08-31T04:45:19;12.50;99.90
73683;DHT22;72538;48.146;11.740;2023-08-31T04:47:45;12.60;99.90
73683;DHT22;72538;48.146;11.740;2023-08-31T04:50:10;12.60;99.90
73683;DHT22;72538;48.146;11.740;2023-08-31T04:52:36;12.60;99.90
73683;DHT22;72538;48.146;11.740;2023-08-31T04:55:02;12.60;99.90
73683;DHT22;72538;48.146;11.740;2023-08-31T04:57:35;12.60;99.90
73683;DHT22;72538;48.146;11.740;2023-08-31T05:00:01;12.60;99.90
73683;DHT22;72538;48.146;11.740;2023-08-31T05:02:27;12.60;99.90
73683;DHT22;72538;48.146;11.740;2023-08-31T05:04:53;12.60;99.90
73683;DHT22;72538;48.146;11.740;2023-08-31T05:07:19;12.60;99.90
73683;DHT22;72538;48.146;11.740;2023-08-31T05:09:44;12.60;99.90
73683;DHT22;72538;48.146;11.740;2023-08-31T05:12:10;12.70;99.90
73683;DHT22;72538;48.146;11.740;2023-08-31T05:14:36;12.70;99.90
73683;DHT22;72538;48.146;11.740;2023-08-31T05:17:04;12.80;99.90
73683;DHT22;72538;48.146;11.740;2023-08-31T05:19:30;12.80;99.90
73683;DHT22;72538;48.146;11.740;2023-08-31T05:21:57;12.80;99.90
73683;DHT22;72538;48.146;11.740;2023-08-31T05:24:23;12.90;99.90
73683;DHT22;72538;48.146;11.740;2023-08-31T05:26:49;12.90;99.90
73683;DHT22;72538;48.146;11.740;2023-08-31T05:29:15;13.00;99.90
73683;DHT22;72538;48.146;11.740;2023-08-31T05:31:42;13.10;99.90
73683;DHT22;72538;48.146;11.740;2023-08-31T05:34:09;13.10;99.90
73683;DHT22;72538;48.146;11.740;2023-08-31T05:36:36;13.20;99.90
73683;DHT22;72538;48.146;11.740;2023-08-31T05:39:02;13.20;99.90
73683;DHT22;72538;48.146;11.740;2023-08-31T05:41:28;13.30;99.90
73683;DHT22;72538;48.146;11.740;2023-08-31T05:43:54;13.30;99.90
73683;DHT22;72538;48.146;11.740;2023-08-31T05:46:20;13.30;99.90
73683;DHT22;72538;48.146;11.740;2023-08-31T05:48:46;13.40;99.90
73683;DHT22;72538;48.146;11.740;2023-08-31T05:51:11;13.30;99.90
73683;DHT22;72538;48.146;11.740;2023-08-31T05:53:37;13.40;99.90
73683;DHT22;72538;48.146;11.740;2023-08-31T05:56:03;13.50;99.90
73683;DHT22;72538;48.146;11.740;2023-08-31T05:58:31;13.50;99.90
73683;DHT22;72538;48.146;11.740;2023-08-31T06:00:57;13.60;99.90
73683;DHT22;72538;48.146;11.740;2023-08-31T06:03:23;13.60;99.90
73683;DHT22;72538;48.146;11.740;2023-08-31T06:05:49;13.70;99.90
73683;DHT22;72538;48.146;11.740;2023-08-31T06:08:15;13.90;99.90
73683;DHT22;72538;48.146;11.740;2023-08-31T06:10:41;13.90;99.90
73683;DHT22;72538;48.146;11.740;2023-08-31T06:13:07;13.90;99.90
73683;DHT22;72538;48.146;11.740;2023-08-31T06:15:32;13.90;99.90
73683;DHT22;72538;48.146;11.740;2023-08-31T06:17:58;13.90;99.90
73683;DHT22;72538;48.146;11.740;2023-08-31T06:20:24;13.90;99.90
73683;DHT22;72538;48.146;11.740;2023-08-31T06:22:49;13.90;99.90
73683;DHT22;72538;48.146;11.740;2023-08-31T06:25:15;14.00;99.90
73683;DHT22;72538;48.146;11.740;2023-08-31T06:27:43;14.10;99.90
73683;DHT22;72538;48.146;11.740;2023-08-31T06:30:10;14.10;99.90
73683;DHT22;72538;48.146;11.740;2023-08-31T06:32:45;14.10;99.90
73683;DHT22;72538;48.146;11.740;2023-08-31T06:35:13;14.10;99.90
73683;DHT22;72538;48.146;11.740;2023-08-31T06:37:39;14.10;99.90
73683;DHT22;72538;48.146;11.740;2023-08-31T06:40:06;14.20;99.90
73683;DHT22;72538;48.146;11.740;2023-08-31T06:42:38;14.30;99.90
73683;DHT22;72538;48.146;11.740;2023-08-31T06:45:04;14.40;99.90
73683;DHT22;72538;48.146;11.740;2023-08-31T06:47:31;14.40;99.90
73683;DHT22;72538;48.146;11.740;2023-08-31T06:49:57;14.60;99.90
73683;DHT22;72538;48.146;11.740;2023-08-31T06:52:27;14.60;99.90
73683;DHT22;72538;48.146;11.740;2023-08-31T06:54:53;14.70;99.90
73683;DHT22;72538;48.146;11.740;2023-08-31T06:57:21;14.80;99.90
73683;DHT22;72538;48.146;11.740;2023-08-31T06:59:48;14.90;99.90
73683;DHT22;72538;48.146;11.740;2023-08-31T07:02:14;14.80;99.90
73683;DHT22;72538;48.146;11.740;2023-08-31T07:04:40;14.80;99.90
73683;DHT22;72538;48.146;11.740;2023-08-31T07:07:06;14.80;99.90
73683;DHT22;72538;48.146;11.740;2023-08-31T07:09:34;14.80;99.90
73683;DHT22;72538;48.146;11.740;2023-08-31T07:12:02;14.80;99.90
73683;DHT22;72538;48.146;11.740;2023-08-31T07:14:28;14.70;99.90
73683;DHT22;72538;48.146;11.740;2023-08-31T07:16:53;14.70;99.90
73683;DHT22;72538;48.146;11.740;2023-08-31T07:19:19;14.70;99.90
73683;DHT22;72538;48.146;11.740;2023-08-31T07:21:45;14.60;99.90
73683;DHT22;72538;48.146;11.740;2023-08-31T07:24:13;14.60;99.90
73683;DHT22;72538;48.146;11.740;2023-08-31T07:26:38;14.60;99.90
73683;DHT22;72538;48.146;11.740;2023-08-31T07:29:04;14.70;99.90
73683;DHT22;72538;48.146;11.740;2023-08-31T07:31:31;14.70;99.90
73683;DHT22;72538;48.146;11.740;2023-08-31T07:33:57;14.70;99.90
73683;DHT22;72538;48.146;11.740;2023-08-31T07:36:24;14.70;99.90
73683;DHT22;72538;48.146;11.740;2023-08-31T07:38:50;14.70;99.90
73683;DHT22;72538;48.146;11.740;2023-08-31T07:41:16;14.90;99.90
73683;DHT22;72538;48.146;11.740;2023-08-31T07:43:42;15.10;99.90
73683;DHT22;72538;48.146;11.740;2023-08-31T07:46:07;15.40;99.90
73683;DHT22;72538;48.146;11.740;2023-08-31T07:48:33;15.70;99.90
73683;DHT22;72538;48.146;11.740;2023-08-31T07:50:59;15.60;99.90
73683;DHT22;72538;48.146;11.740;2023-08-31T07:53:25;15.70;99.90
73683;DHT22;72538;48.146;11.740;2023-08-31T07:55:52;15.70;99.90
73683;DHT22;72538;48.146;11.740;2023-08-31T07:58:20;15.90;99.90
73683;DHT22;72538;48.146;11.740;2023-08-31T08:00:46;16.00;99.90
73683;DHT22;72538;48.146;11.740;2023-08-31T08:03:12;15.90;99.90
73683;DHT22;72538;48.146;11.740;2023-08-31T08:05:39;15.90;99.90
73683;DHT22;72538;48.146;11.740;2023-08-31T08:08:06;15.90;99.90
73683;DHT22;72538;48.146;11.740;2023-08-31T08:10:32;16.00;99.90
73683;DHT22;72538;48.146;11.740;2023-08-31T08:12:58;16.20;99.90
73683;DHT22;72538;48.146;11.740;2023-08-31T08:15:24;16.80;99.90
73683;DHT22;72538;48.146;11.740;2023-08-31T08:17:51;17.30;99.90
73683;DHT22;72538;48.146;11.740;2023-08-31T08:20:18;17.80;99.90
73683;DHT22;72538;48.146;11.740;2023-08-31T08:22:44;18.00;99.90
73683;DHT22;72538;48.146;11.740;2023-08-31T08:25:10;18.70;99.90
73683;DHT22;72538;48.146;11.740;2023-08-31T08:27:36;19.10;99.90
73683;DHT22;72538;48.146;11.740;2023-08-31T08:30:03;18.40;99.90
73683;DHT22;72538;48.146;11.740;2023-08-31T08:32:29;18.20;99.90
73683;DHT22;72538;48.146;11.740;2023-08-31T08:34:55;18.60;99.90
73683;DHT22;72538;48.146;11.740;2023-08-31T08:37:21;18.20;99.90
73683;DHT22;72538;48.146;11.740;2023-08-31T08:39:49;17.80;99.90
73683;DHT22;72538;48.146;11.740;2023-08-31T08:42:17;17.60;99.90
73683;DHT22;72538;48.146;11.740;2023-08-31T08:44:44;17.50;99.90
73683;DHT22;72538;48.146;11.740;2023-08-31T08:47:11;17.30;99.90
73683;DHT22;72538;48.146;11.740;2023-08-31T08:49:38;17.10;99.90
73683;DHT22;72538;48.146;11.740;2023-08-31T08:52:04;17.00;99.90
73683;DHT22;72538;48.146;11.740;2023-08-31T08:54:31;17.00;99.90
73683;DHT22;72538;48.146;11.740;2023-08-31T08:56:57;17.20;99.90
73683;DHT22;72538;48.146;11.740;2023-08-31T08:59:24;17.10;99.90
73683;DHT22;72538;48.146;11.740;2023-08-31T09:01:50;17.00;99.90
73683;DHT22;72538;48.146;11.740;2023-08-31T09:04:16;16.90;99.90
73683;DHT22;72538;48.146;11.740;2023-08-31T09:06:43;16.90;99.90
73683;DHT22;72538;48.146;11.740;2023-08-31T09:09:09;17.00;99.90
73683;DHT22;72538;48.146;11.740;2023-08-31T09:11:37;17.30;99.90
73683;DHT22;72538;48.146;11.740;2023-08-31T09:14:18;17.80;99.90
73683;DHT22;72538;48.146;11.740;2023-08-31T09:16:50;18.40;99.80
73683;DHT22;72538;48.146;11.740;2023-08-31T09:21:48;18.70;97.20
73683;DHT22;72538;48.146;11.740;2023-08-31T09:24:14;18.50;97.40
73683;DHT22;72538;48.146;11.740;2023-08-31T09:26:45;18.50;97.20
73683;DHT22;72538;48.146;11.740;2023-08-31T09:29:14;18.40;98.10
73683;DHT22;72538;48.146;11.740;2023-08-31T09:31:44;18.60;97.60
73683;DHT22;72538;48.146;11.740;2023-08-31T09:34:11;18.70;97.30
73683;DHT22;72538;48.146;11.740;2023-08-31T09:36:38;18.80;96.10
73683;DHT22;72538;48.146;11.740;2023-08-31T09:39:05;18.80;95.90
73683;DHT22;72538;48.146;11.740;2023-08-31T09:41:32;18.90;95.20
73683;DHT22;72538;48.146;11.740;2023-08-31T09:44:14;19.00;95.50
73683;DHT22;72538;48.146;11.740;2023-08-31T09:46:40;19.00;95.70
73683;DHT22;72538;48.146;11.740;2023-08-31T09:49:07;19.00;94.80
73683;DHT22;72538;48.146;11.740;2023-08-31T09:51:35;19.20;94.10
73683;DHT22;72538;48.146;11.740;2023-08-31T09:54:04;19.70;91.90
73683;DHT22;72538;48.146;11.740;2023-08-31T09:56:33;19.60;91.30
73683;DHT22;72538;48.146;11.740;2023-08-31T09:58:59;19.50;91.40
73683;DHT22;72538;48.146;11.740;2023-08-31T10:01:26;19.60;92.40
73683;DHT22;72538;48.146;11.740;2023-08-31T10:03:52;19.70;91.40
73683;DHT22;72538;48.146;11.740;2023-08-31T10:06:18;20.00;91.90
73683;DHT22;72538;48.146;11.740;2023-08-31T10:08:46;20.70;90.70
73683;DHT22;72538;48.146;11.740;2023-08-31T10:11:13;21.30;87.70
73683;DHT22;72538;48.146;11.740;2023-08-31T10:13:41;21.80;84.10
73683;DHT22;72538;48.146;11.740;2023-08-31T10:16:08;21.50;81.60
73683;DHT22;72538;48.146;11.740;2023-08-31T10:18:35;21.10;82.90
73683;DHT22;72538;48.146;11.740;2023-08-31T10:21:02;20.60;82.70
73683;DHT22;72538;48.146;11.740;2023-08-31T10:23:29;20.20;88.20
73683;DHT22;72538;48.146;11.740;2023-08-31T10:28:26;19.70;88.60
73683;DHT22;72538;48.146;11.740;2023-08-31T10:31:05;19.50;88.80
73683;DHT22;72538;48.146;11.740;2023-08-31T10:33:39;19.50;90.80
73683;DHT22;72538;48.146;11.740;2023-08-31T10:36:02;19.50;90.90
73683;DHT22;72538;48.146;11.740;2023-08-31T10:38:30;19.30;90.60
73683;DHT22;72538;48.146;11.740;2023-08-31T10:43:55;18.90;91.40
73683;DHT22;72538;48.146;11.740;2023-08-31T10:51:32;18.50;92.70
73683;DHT22;72538;48.146;11.740;2023-08-31T10:59:51;18.10;94.10
73683;DHT22;72538;48.146;11.740;2023-08-31T11:07:41;18.00;94.50
73683;DHT22;72538;48.146;11.740;2023-08-31T11:10:24;17.90;93.20
73683;DHT22;72538;48.146;11.740;2023-08-31T11:12:54;17.80;94.10
73683;DHT22;72538;48.146;11.740;2023-08-31T11:15:21;17.80;94.50
73683;DHT22;72538;48.146;11.740;2023-08-31T11:17:50;17.80;94.50
73683;DHT22;72538;48.146;11.740;2023-08-31T11:20:17;17.70;95.20
73683;DHT22;72538;48.146;11.740;2023-08-31T11:22:49;17.80;94.40
73683;DHT22;72538;48.146;11.740;2023-08-31T11:25:13;17.80;95.50
73683;DHT22;72538;48.146;11.740;2023-08-31T11:27:40;17.60;95.50
73683;DHT22;72538;48.146;11.740;2023-08-31T11:32:45;17.30;97.20
73683;DHT22;72538;48.146;11.740;2023-08-31T11:35:11;17.10;96.40
73683;DHT22;72538;48.146;11.740;2023-08-31T11:37:37;17.00;97.20
73683;DHT22;72538;48.146;11.740;2023-08-31T11:40:04;16.80;98.50
73683;DHT22;72538;48.146;11.740;2023-08-31T11:42:31;16.80;99.10
73683;DHT22;72538;48.146;11.740;2023-08-31T11:44:58;16.70;99.20
73683;DHT22;72538;48.146;11.740;2023-08-31T11:47:24;16.60;99.90
73683;DHT22;72538;48.146;11.740;2023-08-31T11:49:50;16.60;99.90
73683;DHT22;72538;48.146;11.740;2023-08-31T11:52:17;16.80;99.90
73683;DHT22;72538;48.146;11.740;2023-08-31T11:54:43;16.80;99.90
73683;DHT22;72538;48.146;11.740;2023-08-31T11:57:10;17.20;99.90
73683;DHT22;72538;48.146;11.740;2023-08-31T11:59:36;18.00;99.90
73683;DHT22;72538;48.146;11.740;2023-08-31T12:02:08;18.60;99.90
73683;DHT22;72538;48.146;11.740;2023-08-31T12:04:43;19.00;97.20
73683;DHT22;72538;48.146;11.740;2023-08-31T12:07:09;19.80;96.10
73683;DHT22;72538;48.146;11.740;2023-08-31T12:09:36;19.90;94.60
73683;DHT22;72538;48.146;11.740;2023-08-31T12:12:02;20.00;94.50
73683;DHT22;72538;48.146;11.740;2023-08-31T12:14:30;21.50;90.70
73683;DHT22;72538;48.146;11.740;2023-08-31T12:17:03;23.10;83.50
73683;DHT22;72538;48.146;11.740;2023-08-31T12:19:30;23.20;83.90
73683;DHT22;72538;48.146;11.740;2023-08-31T12:21:57;23.80;77.80
73683;DHT22;72538;48.146;11.740;2023-08-31T12:24:22;23.30;75.90
73683;DHT22;72538;48.146;11.740;2023-08-31T12:26:49;22.90;78.60
73683;DHT22;72538;48.146;11.740;2023-08-31T12:29:16;23.90;75.00
73683;DHT22;72538;48.146;11.740;2023-08-31T12:31:42;26.00;72.50
73683;DHT22;72538;48.146;11.740;2023-08-31T12:34:09;27.50;59.90
73683;DHT22;72538;48.146;11.740;2023-08-31T12:36:36;28.20;58.30
73683;DHT22;72538;48.146;11.740;2023-08-31T12:39:07;29.90;54.50
73683;DHT22;72538;48.146;11.740;2023-08-31T12:41:36;31.40;49.60
73683;DHT22;72538;48.146;11.740;2023-08-31T12:44:06;32.30;46.20
73683;DHT22;72538;48.146;11.740;2023-08-31T12:46:32;33.00;44.90
73683;DHT22;72538;48.146;11.740;2023-08-31T12:49:00;33.50;43.00
73683;DHT22;72538;48.146;11.740;2023-08-31T12:51:28;32.00;43.50
73683;DHT22;72538;48.146;11.740;2023-08-31T12:53:53;30.90;46.70
73683;DHT22;72538;48.146;11.740;2023-08-31T12:56:19;31.00;45.30
73683;DHT22;72538;48.146;11.740;2023-08-31T12:58:49;30.30;46.40
73683;DHT22;72538;48.146;11.740;2023-08-31T13:01:15;30.10;46.80
73683;DHT22;72538;48.146;11.740;2023-08-31T13:03:41;29.50;46.90
73683;DHT22;72538;48.146;11.740;2023-08-31T13:06:07;28.00;46.50
73683;DHT22;72538;48.146;11.740;2023-08-31T13:08:32;26.10;51.70
73683;DHT22;72538;48.146;11.740;2023-08-31T13:10:59;24.90;54.60
73683;DHT22;72538;48.146;11.740;2023-08-31T13:13:24;25.00;56.70
73683;DHT22;72538;48.146;11.740;2023-08-31T13:15:50;25.70;57.30
73683;DHT22;72538;48.146;11.740;2023-08-31T13:18:16;25.60;56.90
73683;DHT22;72538;48.146;11.740;2023-08-31T13:20:53;26.00;53.90
73683;DHT22;72538;48.146;11.740;2023-08-31T13:23:20;27.40;50.40
73683;DHT22;72538;48.146;11.740;2023-08-31T13:25:46;27.80;48.90
73683;DHT22;72538;48.146;11.740;2023-08-31T13:28:12;26.70;50.50
73683;DHT22;72538;48.146;11.740;2023-08-31T13:30:38;25.30;54.60
73683;DHT22;72538;48.146;11.740;2023-08-31T13:35:31;22.70;59.70
73683;DHT22;72538;48.146;11.740;2023-08-31T13:37:56;21.80;62.90
73683;DHT22;72538;48.146;11.740;2023-08-31T13:40:22;20.90;65.30
73683;DHT22;72538;48.146;11.740;2023-08-31T13:42:59;20.60;68.90
73683;DHT22;72538;48.146;11.740;2023-08-31T13:45:27;20.50;69.50
73683;DHT22;72538;48.146;11.740;2023-08-31T13:47:53;21.70;68.60
73683;DHT22;72538;48.146;11.740;2023-08-31T13:50:19;23.10;65.10
73683;DHT22;72538;48.146;11.740;2023-08-31T13:52:45;24.10;59.50
73683;DHT22;72538;48.146;11.740;2023-08-31T13:55:13;24.50;57.70
73683;DHT22;72538;48.146;11.740;2023-08-31T13:57:41;24.30;58.70
73683;DHT22;72538;48.146;11.740;2023-08-31T14:00:08;23.90;59.70
73683;DHT22;72538;48.146;11.740;2023-08-31T14:02:38;23.30;61.80
73683;DHT22;72538;48.146;11.740;2023-08-31T14:05:07;22.70;63.00
73683;DHT22;72538;48.146;11.740;2023-08-31T14:07:35;22.20;62.50
73683;DHT22;72538;48.146;11.740;2023-08-31T14:10:02;21.70;65.30
73683;DHT22;72538;48.146;11.740;2023-08-31T14:12:30;21.30;65.00
73683;DHT22;72538;48.146;11.740;2023-08-31T14:14:55;21.10;67.10
73683;DHT22;72538;48.146;11.740;2023-08-31T14:17:21;21.10;67.00
73683;DHT22;72538;48.146;11.740;2023-08-31T14:19:47;21.00;66.60
73683;DHT22;72538;48.146;11.740;2023-08-31T14:22:12;20.80;65.80
73683;DHT22;72538;48.146;11.740;2023-08-31T14:24:38;20.60;65.20
73683;DHT22;72538;48.146;11.740;2023-08-31T14:27:04;20.50;68.40
73683;DHT22;72538;48.146;11.740;2023-08-31T14:29:30;20.30;67.60
73683;DHT22;72538;48.146;11.740;2023-08-31T14:31:56;20.10;67.20
73683;DHT22;72538;48.146;11.740;2023-08-31T14:34:22;20.00;70.30
73683;DHT22;72538;48.146;11.740;2023-08-31T14:36:48;20.00;67.70
73683;DHT22;72538;48.146;11.740;2023-08-31T14:39:13;20.00;68.90
73683;DHT22;72538;48.146;11.740;2023-08-31T14:41:43;20.00;69.30
73683;DHT22;72538;48.146;11.740;2023-08-31T14:44:09;20.00;69.00
73683;DHT22;72538;48.146;11.740;2023-08-31T14:46:35;20.00;67.70
73683;DHT22;72538;48.146;11.740;2023-08-31T14:49:00;19.90;67.00
73683;DHT22;72538;48.146;11.740;2023-08-31T14:51:26;19.90;69.60
73683;DHT22;72538;48.146;11.740;2023-08-31T14:53:52;19.90;68.00
73683;DHT22;72538;48.146;11.740;2023-08-31T14:56:17;20.00;68.40
73683;DHT22;72538;48.146;11.740;2023-08-31T14:58:43;20.10;67.20
73683;DHT22;72538;48.146;11.740;2023-08-31T15:01:09;20.10;68.80
73683;DHT22;72538;48.146;11.740;2023-08-31T15:03:35;20.10;67.50
73683;DHT22;72538;48.146;11.740;2023-08-31T15:06:02;20.10;67.60
73683;DHT22;72538;48.146;11.740;2023-08-31T15:08:36;20.00;68.20
73683;DHT22;72538;48.146;11.740;2023-08-31T15:11:02;20.10;70.30
73683;DHT22;72538;48.146;11.740;2023-08-31T15:13:28;20.00;69.70
73683;DHT22;72538;48.146;11.740;2023-08-31T15:15:54;19.90;70.80
73683;DHT22;72538;48.146;11.740;2023-08-31T15:18:20;19.80;70.50
73683;DHT22;72538;48.146;11.740;2023-08-31T15:20:47;19.70;68.90
73683;DHT22;72538;48.146;11.740;2023-08-31T15:23:13;19.70;68.90
73683;DHT22;72538;48.146;11.740;2023-08-31T15:25:38;19.80;71.70
73683;DHT22;72538;48.146;11.740;2023-08-31T15:28:06;19.80;69.80
73683;DHT22;72538;48.146;11.740;2023-08-31T15:30:32;19.80;68.40
73683;DHT22;72538;48.146;11.740;2023-08-31T15:33:00;19.90;71.00
73683;DHT22;72538;48.146;11.740;2023-08-31T15:35:28;19.90;69.40
73683;DHT22;72538;48.146;11.740;2023-08-31T15:37:54;19.90;69.10
73683;DHT22;72538;48.146;11.740;2023-08-31T15:40:20;19.70;68.40
73683;DHT22;72538;48.146;11.740;2023-08-31T15:42:47;19.60;67.80
73683;DHT22;72538;48.146;11.740;2023-08-31T15:45:13;19.40;70.70
73683;DHT22;72538;48.146;11.740;2023-08-31T15:47:39;19.30;69.00
73683;DHT22;72538;48.146;11.740;2023-08-31T15:50:05;19.20;67.10